Time;durP1;ratioP1;P1;durP2;ratioP2;P2;SDS_P1;SDS_P2;PMS_P1;PMS_P2;Temp;Humidity;BMP_temperature;BMP_pressure;BME280_temperature;BME280_humidity;BME280_pressure;Samples;Min_cycle;Max_cycle;Signal;HPM_P1;HPM_P2
2021/11/21 00:01:37;;;;;;;35.10;22.67;;;10.00;99.90;;;;;;4913292;29;20463;-83
2021/11/21 00:04:10;;;;;;;31.07;21.93;;;10.10;99.90;;;;;;4896681;29;20456;-84
2021/11/21 00:06:37;;;;;;;30.10;20.97;;;10.00;99.90;;;;;;4913769;29;20526;-84
2021/11/21 00:09:04;;;;;;;29.27;20.90;;;9.90;99.90;;;;;;4890540;29;20486;-83
2021/11/21 00:11:35;;;;;;;33.93;22.70;;;10.00;99.90;;;;;;4915625;29;20445;-83
2021/11/21 00:14:06;;;;;;;31.80;22.63;;;10.10;99.90;;;;;;4911309;29;21058;-84
2021/11/21 00:17:01;;;;;;;31.90;22.63;;;10.00;99.90;;;;;;4931431;29;20480;-83
2021/11/21 00:19:28;;;;;;;29.17;21.80;;;10.00;99.90;;;;;;4941030;28;20493;-82
2021/11/21 00:21:57;;;;;;;35.83;22.20;;;10.10;99.90;;;;;;4912257;29;20458;-82
2021/11/21 00:24:27;;;;;;;34.10;21.90;;;10.00;99.90;;;;;;4897486;29;20537;-83
2021/11/21 00:27:06;;;;;;;29.70;20.00;;;10.00;99.90;;;;;;4899373;29;20882;-83
2021/11/21 00:29:33;;;;;;;31.93;22.20;;;10.00;99.90;;;;;;4911560;29;20496;-83
2021/11/21 00:32:01;;;;;;;37.07;23.60;;;10.00;99.90;;;;;;4913822;29;20447;-83
2021/11/21 00:34:29;;;;;;;35.20;22.50;;;10.10;99.90;;;;;;4910169;29;20509;-80
2021/11/21 00:37:05;;;;;;;33.47;20.67;;;10.10;99.90;;;;;;4911315;29;20487;-82
2021/11/21 00:39:32;;;;;;;31.53;21.70;;;10.10;99.90;;;;;;4913898;29;20485;-84
2021/11/21 00:41:59;;;;;;;32.23;21.40;;;10.00;99.90;;;;;;4925523;29;20430;-83
2021/11/21 00:44:29;;;;;;;29.70;20.50;;;9.90;99.90;;;;;;4904944;29;20515;-83
2021/11/21 00:46:57;;;;;;;30.37;18.70;;;10.10;99.90;;;;;;4899813;29;20441;-82
2021/11/21 00:49:23;;;;;;;32.93;20.90;;;10.10;99.90;;;;;;4912698;28;20478;-85
2021/11/21 00:51:52;;;;;;;29.60;20.27;;;10.10;99.90;;;;;;4911580;29;20458;-83
2021/11/21 00:54:45;;;;;;;29.57;19.03;;;10.20;99.90;;;;;;4908683;29;20469;-83
2021/11/21 00:57:12;;;;;;;30.77;20.53;;;10.20;99.90;;;;;;4901576;29;20498;-81
2021/11/21 00:59:39;;;;;;;29.57;21.97;;;10.00;99.90;;;;;;4912116;29;20477;-83
2021/11/21 01:02:09;;;;;;;29.33;19.80;;;10.00;99.90;;;;;;4912941;29;20454;-83
2021/11/21 01:04:37;;;;;;;29.97;20.17;;;10.00;99.90;;;;;;4916149;28;20443;-83
2021/11/21 01:07:04;;;;;;;29.50;19.17;;;10.10;99.90;;;;;;4917017;29;20451;-83
2021/11/21 01:09:35;;;;;;;25.53;18.97;;;10.30;99.90;;;;;;4927952;28;20455;-81
2021/11/21 01:12:03;;;;;;;24.10;17.60;;;10.30;99.90;;;;;;4897432;29;20458;-83
2021/11/21 01:14:31;;;;;;;24.30;17.43;;;10.20;99.90;;;;;;4915939;28;20442;-86
2021/11/21 01:16:57;;;;;;;25.97;17.13;;;10.10;99.90;;;;;;4913860;29;20496;-82
2021/11/21 01:19:25;;;;;;;28.63;18.37;;;10.10;99.90;;;;;;4915511;29;20469;-83
2021/11/21 01:21:52;;;;;;;28.30;18.60;;;10.20;99.90;;;;;;4912177;29;20685;-83
2021/11/21 01:24:19;;;;;;;23.80;17.10;;;10.10;99.90;;;;;;4916251;29;20457;-82
2021/11/21 01:26:46;;;;;;;24.43;17.10;;;10.10;99.90;;;;;;4894330;29;20466;-83
2021/11/21 01:29:15;;;;;;;25.20;16.60;;;10.10;99.90;;;;;;4895451;29;20492;-84
2021/11/21 01:31:46;;;;;;;22.97;15.50;;;9.90;99.90;;;;;;4890799;29;20481;-83
2021/11/21 01:34:15;;;;;;;22.73;16.53;;;9.80;99.90;;;;;;4894567;29;20474;-83
2021/11/21 01:36:43;;;;;;;24.03;16.00;;;9.70;99.90;;;;;;4896276;29;20494;-83
2021/11/21 01:39:10;;;;;;;22.10;15.40;;;9.70;99.90;;;;;;4873534;29;20565;-83
2021/11/21 01:41:38;;;;;;;20.70;15.40;;;9.70;99.90;;;;;;4915463;29;20473;-85
2021/11/21 01:44:09;;;;;;;21.63;14.53;;;9.80;99.90;;;;;;4902017;29;20488;-86
2021/11/21 01:46:39;;;;;;;19.90;13.90;;;9.80;99.90;;;;;;4897134;29;21244;-84
2021/11/21 01:49:08;;;;;;;23.63;16.17;;;9.80;99.90;;;;;;4915725;29;22429;-86
2021/11/21 01:51:37;;;;;;;21.33;15.43;;;9.80;99.90;;;;;;4897287;29;20472;-87
2021/11/21 01:54:12;;;;;;;22.47;15.80;;;9.80;99.90;;;;;;4900102;29;21015;-84
2021/11/21 01:57:18;;;;;;;19.27;14.63;;;9.90;99.90;;;;;;4898559;29;21103;-85
2021/11/21 01:59:48;;;;;;;21.43;14.70;;;9.90;99.90;;;;;;4899926;29;20815;-84
2021/11/21 02:02:15;;;;;;;16.93;13.10;;;9.80;99.90;;;;;;4896599;29;20508;-85
2021/11/21 02:04:43;;;;;;;16.83;12.70;;;9.90;99.90;;;;;;4912788;29;20459;-85
2021/11/21 02:07:09;;;;;;;17.30;12.90;;;9.90;99.90;;;;;;4898581;29;20530;-85
2021/11/21 02:09:36;;;;;;;15.40;11.97;;;9.90;99.90;;;;;;4898056;29;22062;-85
2021/11/21 02:12:04;;;;;;;16.73;13.47;;;9.90;99.90;;;;;;4902258;29;20537;-84
2021/11/21 02:14:34;;;;;;;18.20;12.10;;;9.90;99.90;;;;;;4914128;29;20478;-83
2021/11/21 02:17:01;;;;;;;16.20;11.83;;;9.90;99.90;;;;;;4896179;29;20519;-85
2021/11/21 02:22:04;;;;;;;13.70;11.90;;;10.00;99.90;;;;;;4898593;29;20494;-83
2021/11/21 02:24:31;;;;;;;16.87;12.93;;;10.10;99.90;;;;;;4895656;29;20938;-83
2021/11/21 02:27:01;;;;;;;16.67;12.93;;;10.20;99.90;;;;;;4890037;29;20453;-82
2021/11/21 02:29:28;;;;;;;16.13;12.30;;;10.30;99.90;;;;;;4894530;29;20480;-84
2021/11/21 02:31:55;;;;;;;17.53;12.23;;;10.20;99.90;;;;;;4896382;29;21157;-82
2021/11/21 02:34:22;;;;;;;15.80;12.20;;;10.10;99.90;;;;;;4912882;29;20457;-84
2021/11/21 02:36:51;;;;;;;16.00;12.90;;;10.30;99.90;;;;;;4897257;29;20490;-85
2021/11/21 02:39:18;;;;;;;16.73;11.87;;;10.60;99.90;;;;;;4921897;23;20532;-84
2021/11/21 02:41:45;;;;;;;16.93;13.30;;;10.70;99.90;;;;;;4910935;29;20461;-83
2021/11/21 02:44:26;;;;;;;20.90;15.87;;;10.50;99.90;;;;;;4896107;29;20585;-85
2021/11/21 02:46:53;;;;;;;14.60;11.70;;;10.20;99.90;;;;;;4911810;29;20465;-84
2021/11/21 02:49:20;;;;;;;17.07;12.40;;;10.10;99.90;;;;;;4893908;29;20497;-84
2021/11/21 02:51:47;;;;;;;18.13;13.23;;;10.00;99.90;;;;;;4897789;29;20487;-85
2021/11/21 02:54:17;;;;;;;16.57;12.03;;;10.10;99.90;;;;;;4898496;29;21904;-86
2021/11/21 02:56:50;;;;;;;15.30;12.67;;;10.00;99.90;;;;;;4897697;29;22051;-84
2021/11/21 02:59:26;;;;;;;12.90;11.27;;;10.00;99.90;;;;;;4933785;23;21698;-83
2021/11/21 03:02:06;;;;;;;17.20;12.50;;;10.10;99.90;;;;;;4935755;28;20555;-85
2021/11/21 03:04:40;;;;;;;16.67;13.40;;;10.30;99.90;;;;;;4941068;28;20503;-84
2021/11/21 03:07:09;;;;;;;15.27;11.70;;;10.20;99.90;;;;;;4944783;28;20505;-84
2021/11/21 03:09:36;;;;;;;15.90;11.83;;;10.10;99.90;;;;;;4936547;28;20489;-84
2021/11/21 03:12:11;;;;;;;15.20;12.70;;;10.00;99.90;;;;;;4922706;28;21047;-85
2021/11/21 03:14:38;;;;;;;14.60;11.83;;;10.00;99.90;;;;;;4921692;28;20974;-87
2021/11/21 03:17:07;;;;;;;18.40;13.50;;;10.00;99.90;;;;;;4920818;28;20481;-84
2021/11/21 03:19:34;;;;;;;17.53;12.57;;;10.00;99.90;;;;;;4924000;28;20848;-84
2021/11/21 03:22:11;;;;;;;17.20;13.23;;;10.00;99.90;;;;;;4921995;28;20472;-82
2021/11/21 03:24:38;;;;;;;18.80;12.40;;;9.90;99.90;;;;;;4921463;28;21066;-83
2021/11/21 03:27:05;;;;;;;21.33;13.83;;;10.00;99.90;;;;;;4924969;28;20461;-83
2021/11/21 03:29:34;;;;;;;17.87;12.93;;;9.90;99.90;;;;;;4914750;28;20485;-84
2021/11/21 03:32:01;;;;;;;19.50;13.00;;;9.90;99.90;;;;;;4925645;28;20495;-83
2021/11/21 03:34:29;;;;;;;18.97;13.40;;;9.90;99.90;;;;;;4927428;28;20516;-84
2021/11/21 03:39:52;;;;;;;21.60;13.67;;;9.90;99.90;;;;;;4924317;28;20483;-84
2021/11/21 03:42:19;;;;;;;18.50;13.33;;;9.80;99.90;;;;;;4928876;28;20451;-84
2021/11/21 03:44:50;;;;;;;17.30;13.07;;;9.80;99.90;;;;;;4920586;28;20453;-82
2021/11/21 03:47:17;;;;;;;17.63;13.97;;;9.80;99.90;;;;;;4910065;28;20831;-83
2021/11/21 03:49:53;;;;;;;18.43;13.67;;;9.80;99.90;;;;;;4930327;23;21157;-83
2021/11/21 03:52:23;;;;;;;18.60;13.60;;;9.80;99.90;;;;;;4936560;28;20451;-84
2021/11/21 03:54:50;;;;;;;16.07;12.83;;;9.80;99.90;;;;;;4933553;28;20479;-84
2021/11/21 03:57:47;;;;;;;19.33;14.07;;;9.80;99.90;;;;;;4936807;28;20996;-85
2021/11/21 04:00:24;;;;;;;18.40;13.63;;;9.80;99.90;;;;;;4935596;28;20473;-85
2021/11/21 04:02:52;;;;;;;17.27;12.87;;;9.80;99.90;;;;;;4934213;28;20530;-84
2021/11/21 04:05:19;;;;;;;17.53;13.47;;;9.70;99.90;;;;;;4931981;28;20592;-84
2021/11/21 04:07:47;;;;;;;17.13;12.77;;;9.70;99.90;;;;;;4931339;28;20486;-84
2021/11/21 04:10:16;;;;;;;16.60;12.43;;;9.70;99.90;;;;;;4933528;28;20488;-84
2021/11/21 04:12:43;;;;;;;17.17;12.63;;;9.70;99.90;;;;;;4932014;28;20466;-84
2021/11/21 04:15:42;;;;;;;;;;;;;;;;;;;;;
2021/11/21 04:18:10;;;;;;;19.17;13.50;;;9.70;99.90;;;;;;4934131;28;20513;-83
2021/11/21 04:20:42;;;;;;;17.63;12.27;;;9.70;99.90;;;;;;4945814;28;20484;-86
2021/11/21 04:23:09;;;;;;;17.40;12.80;;;9.70;99.90;;;;;;4956167;28;20445;-86
2021/11/21 04:25:35;;;;;;;15.50;11.80;;;9.70;99.90;;;;;;4955892;28;20525;-84
2021/11/21 04:28:03;;;;;;;16.30;13.10;;;9.70;99.90;;;;;;4953175;28;20495;-84
2021/11/21 04:30:32;;;;;;;16.00;13.00;;;9.70;99.90;;;;;;4941432;28;20559;-85
2021/11/21 04:33:08;;;;;;;15.20;11.73;;;9.70;99.90;;;;;;4941127;28;20549;-85
2021/11/21 04:35:35;;;;;;;16.10;12.30;;;9.70;99.90;;;;;;4941981;28;21794;-84
2021/11/21 04:38:02;;;;;;;15.97;12.13;;;9.70;99.90;;;;;;4950478;28;20477;-84
2021/11/21 04:40:29;;;;;;;14.33;11.43;;;9.70;99.90;;;;;;4965571;28;20476;-84
2021/11/21 04:42:55;;;;;;;17.73;12.90;;;9.70;99.90;;;;;;4962693;28;20459;-88
2021/11/21 04:45:22;;;;;;;14.30;11.40;;;9.70;99.90;;;;;;4954525;28;20452;-84
2021/11/21 04:48:00;;;;;;;17.93;12.97;;;9.70;99.90;;;;;;4929172;28;21020;-83
2021/11/21 04:50:33;;;;;;;14.40;11.43;;;9.70;99.90;;;;;;4936054;28;21961;-84
2021/11/21 04:53:08;;;;;;;13.30;10.57;;;9.70;99.90;;;;;;4935200;28;20459;-83
2021/11/21 04:55:35;;;;;;;13.83;10.90;;;9.70;99.90;;;;;;4931827;28;20468;-83
2021/11/21 04:58:02;;;;;;;16.30;10.97;;;9.70;99.90;;;;;;4937601;28;20477;-83
2021/11/21 05:00:29;;;;;;;13.87;10.00;;;9.60;99.90;;;;;;4950981;28;20467;-84
2021/11/21 05:02:56;;;;;;;14.90;10.93;;;9.60;99.90;;;;;;4936198;28;20453;-85
2021/11/21 05:05:24;;;;;;;13.10;10.63;;;9.60;99.90;;;;;;4947615;28;20488;-84
2021/11/21 05:07:52;;;;;;;13.50;9.63;;;9.60;99.90;;;;;;4934183;28;20975;-85
2021/11/21 05:10:27;;;;;;;13.17;10.53;;;9.60;99.90;;;;;;4934268;28;20492;-84
2021/11/21 05:12:54;;;;;;;13.70;10.03;;;9.60;99.90;;;;;;4939582;28;20470;-85
2021/11/21 05:15:25;;;;;;;13.73;10.70;;;9.60;99.90;;;;;;4944028;28;20643;-84
2021/11/21 05:18:00;;;;;;;14.50;9.60;;;9.70;99.90;;;;;;4935885;28;20490;-86
2021/11/21 05:20:27;;;;;;;14.53;10.57;;;9.70;99.90;;;;;;4943243;28;20480;-84
2021/11/21 05:22:54;;;;;;;12.43;9.80;;;9.70;99.90;;;;;;4937659;28;20458;-84
2021/11/21 05:25:28;;;;;;;13.50;10.83;;;9.70;99.90;;;;;;4938879;28;20488;-85
2021/11/21 05:27:54;;;;;;;13.67;9.83;;;9.70;99.90;;;;;;4937232;28;20513;-84
2021/11/21 05:30:22;;;;;;;12.40;10.03;;;9.70;99.90;;;;;;4938425;28;21115;-84
2021/11/21 05:32:50;;;;;;;16.53;10.97;;;9.70;99.90;;;;;;4937980;28;21814;-84
2021/11/21 05:35:17;;;;;;;12.77;9.60;;;9.70;99.90;;;;;;4934403;28;20477;-85
2021/11/21 05:37:46;;;;;;;13.63;9.13;;;9.70;99.90;;;;;;4937302;28;21349;-84
2021/11/21 05:40:14;;;;;;;13.13;9.83;;;9.70;99.90;;;;;;4938262;28;20561;-85
2021/11/21 05:42:41;;;;;;;13.83;10.50;;;9.60;99.90;;;;;;4936286;28;20470;-84
2021/11/21 05:45:09;;;;;;;12.40;10.00;;;9.60;99.90;;;;;;4937281;28;20449;-85
2021/11/21 05:47:52;;;;;;;13.30;9.20;;;9.60;99.90;;;;;;4932858;28;20437;-85
2021/11/21 05:50:20;;;;;;;11.83;9.70;;;9.70;99.90;;;;;;4939352;28;20515;-85
2021/11/21 05:52:59;;;;;;;12.30;9.80;;;10.00;99.90;;;;;;4942479;28;20465;-83
2021/11/21 05:55:29;;;;;;;12.77;8.97;;;10.10;99.90;;;;;;4942683;28;20816;-83
2021/11/21 05:57:55;;;;;;;11.80;9.00;;;10.00;99.90;;;;;;4941178;28;20483;-84
2021/11/21 06:00:31;;;;;;;17.37;9.20;;;9.80;99.90;;;;;;4942555;28;20473;-83
2021/11/21 06:02:59;;;;;;;13.03;9.40;;;9.80;99.90;;;;;;4932508;28;20460;-83
2021/11/21 06:05:26;;;;;;;10.93;8.73;;;9.70;99.90;;;;;;4938140;28;22327;-84
2021/11/21 06:07:53;;;;;;;10.80;9.13;;;9.70;99.90;;;;;;4934906;28;20552;-82
2021/11/21 06:10:23;;;;;;;11.13;8.80;;;9.70;99.90;;;;;;4928860;23;20515;-85
2021/11/21 06:12:52;;;;;;;12.70;9.33;;;9.70;99.90;;;;;;4919999;28;21079;-86
2021/11/21 06:15:19;;;;;;;14.13;9.63;;;9.70;99.90;;;;;;4920149;28;20442;-84
2021/11/21 06:17:45;;;;;;;13.87;9.60;;;9.70;99.90;;;;;;4915165;28;20494;-83
2021/11/21 06:20:13;;;;;;;11.30;8.60;;;9.70;99.90;;;;;;4933728;23;21339;-86
2021/11/21 06:22:42;;;;;;;11.77;9.57;;;9.70;99.90;;;;;;4915258;29;20452;-85
2021/11/21 06:25:10;;;;;;;11.60;8.07;;;9.70;99.90;;;;;;4914755;28;20497;-84
2021/11/21 06:27:38;;;;;;;10.73;8.37;;;9.70;99.90;;;;;;4915060;28;22268;-86
2021/11/21 06:30:06;;;;;;;9.10;7.60;;;9.70;99.90;;;;;;4916803;28;20472;-85
2021/11/21 06:32:34;;;;;;;11.30;8.87;;;9.70;99.90;;;;;;4916968;29;20468;-83
2021/11/21 06:35:01;;;;;;;9.60;7.70;;;9.70;99.90;;;;;;4816374;28;20562;-83
2021/11/21 06:37:44;;;;;;;10.40;7.37;;;9.70;99.90;;;;;;4930351;28;20469;-86
2021/11/21 06:40:20;;;;;;;10.33;7.43;;;9.80;99.90;;;;;;4919987;28;20481;-85
2021/11/21 06:42:56;;;;;;;10.57;7.70;;;9.70;99.90;;;;;;4915951;28;20473;-84
2021/11/21 06:45:23;;;;;;;11.00;8.03;;;9.70;99.90;;;;;;4916493;29;20451;-84
2021/11/21 06:47:50;;;;;;;10.37;8.20;;;9.80;99.90;;;;;;4917363;28;20458;-84
2021/11/21 06:50:17;;;;;;;9.97;8.23;;;9.90;99.90;;;;;;4917599;28;21073;-84
2021/11/21 06:52:47;;;;;;;9.40;7.90;;;9.90;99.90;;;;;;4915907;28;20570;-86
2021/11/21 06:55:16;;;;;;;16.10;8.47;;;9.90;99.90;;;;;;4919185;28;21277;-84
2021/11/21 06:57:43;;;;;;;8.03;7.00;;;9.90;99.90;;;;;;4919210;29;20445;-84
2021/11/21 07:00:17;;;;;;;10.57;7.90;;;9.90;99.90;;;;;;4915906;28;20483;-83
2021/11/21 07:02:44;;;;;;;11.97;8.20;;;9.90;99.90;;;;;;4921388;29;20541;-83
2021/11/21 07:05:11;;;;;;;9.37;8.17;;;10.00;99.90;;;;;;4918312;28;20447;-86
2021/11/21 07:07:40;;;;;;;9.40;7.20;;;9.90;99.90;;;;;;4918651;28;20440;-85
2021/11/21 07:10:16;;;;;;;9.27;7.77;;;9.90;99.90;;;;;;4920134;28;20463;-86
2021/11/21 07:12:42;;;;;;;7.83;7.03;;;9.80;99.90;;;;;;4920709;29;20536;-86
2021/11/21 07:15:19;;;;;;;9.60;8.60;;;9.80;99.90;;;;;;4926751;29;20869;-84
2021/11/21 07:17:48;;;;;;;9.23;8.00;;;9.70;99.90;;;;;;4927992;28;20463;-85
2021/11/21 07:20:31;;;;;;;10.37;8.97;;;9.70;99.90;;;;;;4938783;28;20507;-85
2021/11/21 07:23:10;;;;;;;9.77;7.73;;;9.70;99.90;;;;;;4938396;28;20441;-84
2021/11/21 07:25:37;;;;;;;11.70;8.67;;;9.70;99.90;;;;;;4943867;28;20479;-84
2021/11/21 07:28:04;;;;;;;10.30;8.60;;;9.80;99.90;;;;;;4941350;28;20479;-87
2021/11/21 07:30:33;;;;;;;10.23;7.60;;;9.70;99.90;;;;;;4942316;28;20544;-85
2021/11/21 07:33:06;;;;;;;11.43;8.60;;;9.80;99.90;;;;;;4957164;28;20509;-86
2021/11/21 07:35:33;;;;;;;11.20;8.80;;;9.80;99.90;;;;;;4949755;28;20467;-86
2021/11/21 07:38:03;;;;;;;11.73;8.63;;;9.80;99.90;;;;;;4935879;29;20493;-85
2021/11/21 07:40:43;;;;;;;11.43;8.60;;;9.80;99.90;;;;;;4933955;28;20506;-85
2021/11/21 07:46:50;;;;;;;11.20;8.70;;;9.80;99.90;;;;;;4929566;28;20459;-85
2021/11/21 07:49:18;;;;;;;13.07;8.60;;;9.80;99.90;;;;;;4934695;28;20494;-84
2021/11/21 07:51:52;;;;;;;16.10;10.83;;;9.90;99.90;;;;;;4932736;29;20461;-84
2021/11/21 07:54:19;;;;;;;13.30;8.37;;;9.90;99.90;;;;;;4949665;28;20453;-86
2021/11/21 07:56:46;;;;;;;9.63;8.63;;;9.80;99.90;;;;;;4932229;28;20537;-82
2021/11/21 07:59:23;;;;;;;10.90;8.70;;;9.80;99.90;;;;;;4930072;28;21167;-86
2021/11/21 08:01:56;;;;;;;11.20;9.20;;;9.80;99.90;;;;;;4937822;29;20514;-84
2021/11/21 08:04:25;;;;;;;12.60;9.27;;;9.90;99.90;;;;;;4927061;29;20467;-85
2021/11/21 08:06:53;;;;;;;11.87;9.90;;;9.90;99.90;;;;;;4921777;28;20466;-86
2021/11/21 08:09:25;;;;;;;12.63;9.43;;;10.00;99.90;;;;;;4923847;28;20954;-84
2021/11/21 08:11:53;;;;;;;11.77;8.63;;;10.00;99.90;;;;;;4937279;28;20570;-85
2021/11/21 08:14:30;;;;;;;11.07;8.90;;;10.00;99.90;;;;;;4925716;28;20889;-84
2021/11/21 08:17:04;;;;;;;11.47;9.13;;;10.10;99.90;;;;;;4920867;28;20461;-85
2021/11/21 08:19:34;;;;;;;12.10;9.30;;;10.00;99.90;;;;;;4920885;28;20971;-84
2021/11/21 08:22:13;;;;;;;13.50;9.83;;;10.00;99.90;;;;;;4922973;28;21347;-85
2021/11/21 08:24:40;;;;;;;11.70;8.30;;;10.00;99.90;;;;;;4917848;28;20560;-84
2021/11/21 08:27:07;;;;;;;13.87;9.80;;;10.00;99.90;;;;;;4923556;29;20462;-84
2021/11/21 08:29:34;;;;;;;12.60;9.63;;;10.00;99.90;;;;;;4924949;28;20584;-87
2021/11/21 08:32:04;;;;;;;10.13;9.07;;;10.00;99.90;;;;;;4897035;28;21008;-85
2021/11/21 08:34:31;;;;;;;12.00;9.13;;;9.90;99.90;;;;;;4843762;29;20481;-83
2021/11/21 08:37:00;;;;;;;13.17;10.47;;;9.90;99.90;;;;;;4920693;28;20899;-83
2021/11/21 08:40:00;;;;;;;11.80;8.90;;;9.90;99.90;;;;;;4924091;28;20511;-84
2021/11/21 08:42:30;;;;;;;11.07;8.73;;;9.90;99.90;;;;;;4932418;28;20461;-85
2021/11/21 08:45:06;;;;;;;13.80;10.40;;;10.00;99.90;;;;;;4939351;29;20468;-83
2021/11/21 08:47:33;;;;;;;13.73;10.63;;;10.00;99.90;;;;;;4949744;28;20458;-85
2021/11/21 08:50:00;;;;;;;13.20;10.77;;;9.90;99.90;;;;;;4935517;28;20495;-84
2021/11/21 08:52:33;;;;;;;13.03;10.57;;;9.90;99.90;;;;;;4934985;28;20445;-84
2021/11/21 08:54:59;;;;;;;13.17;9.93;;;9.90;99.90;;;;;;4936856;28;20461;-86
2021/11/21 08:57:26;;;;;;;13.23;10.00;;;9.90;99.90;;;;;;4928677;28;20893;-84
2021/11/21 08:59:53;;;;;;;10.90;9.77;;;9.90;99.90;;;;;;4992151;23;20515;-85
2021/11/21 09:02:20;;;;;;;13.63;10.00;;;9.90;99.90;;;;;;4958682;28;20446;-83
2021/11/21 09:04:52;;;;;;;12.47;9.93;;;9.90;99.90;;;;;;4964197;28;20459;-84
2021/11/21 09:07:19;;;;;;;13.23;10.00;;;9.90;99.90;;;;;;4962505;28;20452;-84
2021/11/21 09:09:51;;;;;;;13.77;10.00;;;10.00;99.90;;;;;;4956443;28;21591;-84
2021/11/21 09:12:18;;;;;;;12.63;10.17;;;10.00;99.90;;;;;;4949703;28;20442;-81
2021/11/21 09:14:45;;;;;;;10.70;8.90;;;10.00;99.90;;;;;;4936404;28;20454;-84
2021/11/21 09:17:12;;;;;;;13.43;10.23;;;10.00;99.90;;;;;;4939698;28;20468;-83
2021/11/21 09:19:39;;;;;;;10.57;9.00;;;10.00;99.90;;;;;;4945781;23;20503;-83
2021/11/21 09:22:13;;;;;;;11.07;8.50;;;10.00;99.90;;;;;;4935536;28;20464;-83
2021/11/21 09:24:40;;;;;;;11.53;8.23;;;10.00;99.90;;;;;;4933922;28;20460;-83
2021/11/21 09:27:07;;;;;;;10.80;8.50;;;9.90;99.90;;;;;;4934154;28;21490;-83
2021/11/21 09:29:34;;;;;;;12.87;9.40;;;9.90;99.90;;;;;;4935350;28;20854;-84
2021/11/21 09:32:03;;;;;;;9.13;7.33;;;9.90;99.90;;;;;;4932160;28;20461;-84
2021/11/21 09:34:30;;;;;;;10.90;8.77;;;9.90;99.90;;;;;;4933338;28;21009;-82
2021/11/21 09:36:57;;;;;;;9.93;7.60;;;9.90;99.90;;;;;;4933285;28;20471;-84
2021/11/21 09:39:24;;;;;;;9.80;6.73;;;9.90;99.90;;;;;;4935254;28;20502;-84
2021/11/21 09:41:52;;;;;;;10.83;8.60;;;9.90;99.90;;;;;;4931058;28;20908;-84
2021/11/21 09:44:24;;;;;;;9.77;7.73;;;9.90;99.90;;;;;;4930548;28;20462;-83
2021/11/21 09:47:01;;;;;;;8.97;6.97;;;9.80;99.90;;;;;;4933240;28;20484;-85
2021/11/21 09:49:48;;;;;;;9.43;7.30;;;9.80;99.90;;;;;;4933170;28;20493;-85
2021/11/21 09:52:47;;;;;;;9.00;6.80;;;9.80;99.90;;;;;;4939150;28;20456;-84
2021/11/21 09:55:20;;;;;;;9.33;7.20;;;9.80;99.90;;;;;;4936785;28;20461;-82
2021/11/21 09:57:48;;;;;;;7.23;6.37;;;9.80;99.90;;;;;;4948287;28;20465;-83
2021/11/21 10:00:18;;;;;;;8.50;7.07;;;9.80;99.90;;;;;;4936911;28;21062;-84
2021/11/21 10:03:16;;;;;;;8.10;6.23;;;9.80;99.90;;;;;;4936080;28;20540;-83
2021/11/21 10:05:49;;;;;;;8.73;7.03;;;9.80;99.90;;;;;;4935456;28;21203;-86
2021/11/21 10:08:19;;;;;;;8.10;6.80;;;9.80;99.90;;;;;;4932001;28;20528;-86
2021/11/21 10:10:54;;;;;;;9.40;6.80;;;9.80;99.90;;;;;;5104777;23;20536;-84
2021/11/21 10:13:53;;;;;;;8.40;7.17;;;9.90;99.90;;;;;;4934494;28;20447;-82
2021/11/21 10:16:44;;;;;;;7.80;6.70;;;9.90;99.90;;;;;;4936444;28;20464;-84
2021/11/21 10:19:12;;;;;;;9.67;6.87;;;9.90;99.90;;;;;;4935278;28;20629;-82
2021/11/21 10:21:51;;;;;;;10.00;7.50;;;9.90;99.90;;;;;;4935025;28;20949;-84
2021/11/21 10:24:28;;;;;;;9.93;7.70;;;9.90;99.90;;;;;;4941172;28;20453;-83
2021/11/21 10:27:16;;;;;;;11.57;8.00;;;9.90;99.90;;;;;;4935808;28;20460;-83
2021/11/21 10:29:49;;;;;;;10.30;8.07;;;9.90;99.90;;;;;;4933828;28;20553;-83
2021/11/21 10:32:32;;;;;;;10.53;7.33;;;9.90;99.90;;;;;;4949082;28;20463;-83
2021/11/21 10:35:05;;;;;;;9.40;7.77;;;9.90;99.90;;;;;;4935116;28;20472;-84
2021/11/21 10:37:38;;;;;;;10.33;8.20;;;10.00;99.90;;;;;;4951396;28;21785;-83
2021/11/21 10:40:05;;;;;;;9.77;7.50;;;10.00;99.90;;;;;;4955530;28;20500;-87
2021/11/21 10:42:32;;;;;;;12.43;8.60;;;10.00;99.90;;;;;;4943710;28;20465;-84
2021/11/21 10:44:59;;;;;;;10.57;8.40;;;10.00;99.90;;;;;;4850308;28;20464;-83
2021/11/21 10:47:41;;;;;;;9.03;7.73;;;10.00;99.90;;;;;;4936225;28;20465;-82
2021/11/21 10:50:13;;;;;;;10.27;8.33;;;10.10;99.90;;;;;;4934578;28;20482;-84
2021/11/21 10:52:48;;;;;;;11.40;8.30;;;10.10;99.90;;;;;;4918714;28;20547;-83
2021/11/21 10:55:16;;;;;;;9.13;7.33;;;10.20;99.90;;;;;;4935308;28;20449;-82
2021/11/21 10:57:44;;;;;;;11.37;8.73;;;10.20;99.90;;;;;;4937133;28;20464;-84
2021/11/21 11:00:26;;;;;;;11.73;9.13;;;10.30;99.90;;;;;;4949815;28;20492;-84
2021/11/21 11:02:54;;;;;;;11.37;8.93;;;10.30;99.90;;;;;;4958456;28;20471;-87
2021/11/21 11:05:23;;;;;;;10.43;8.17;;;10.30;99.90;;;;;;4958100;28;20534;-83
2021/11/21 11:08:02;;;;;;;11.37;9.23;;;10.40;99.90;;;;;;4957280;28;20453;-85
2021/11/21 11:10:30;;;;;;;10.87;9.03;;;10.40;99.90;;;;;;4973675;28;20495;-84
2021/11/21 11:13:11;;;;;;;12.13;9.27;;;10.40;99.90;;;;;;4944891;28;21012;-85
2021/11/21 11:15:49;;;;;;;11.33;8.83;;;10.40;99.90;;;;;;4934902;28;20488;-83
2021/11/21 11:18:17;;;;;;;12.40;9.30;;;10.50;99.90;;;;;;4930094;28;20466;-83
2021/11/21 11:20:49;;;;;;;11.50;9.53;;;10.50;99.90;;;;;;4933489;28;21019;-84
2021/11/21 11:23:19;;;;;;;13.03;10.30;;;10.50;99.90;;;;;;4938496;28;20457;-83
2021/11/21 11:25:47;;;;;;;10.47;9.00;;;10.60;99.90;;;;;;4950247;28;20541;-84
2021/11/21 11:28:29;;;;;;;16.13;9.27;;;10.70;99.90;;;;;;4931876;28;21191;-83
2021/11/21 11:30:58;;;;;;;12.77;9.40;;;10.60;99.90;;;;;;4933358;28;20478;-83
2021/11/21 11:33:35;;;;;;;12.33;9.40;;;10.60;99.90;;;;;;4937031;28;20869;-86
2021/11/21 11:36:20;;;;;;;12.23;10.10;;;10.60;99.90;;;;;;4933189;28;20475;-83
2021/11/21 11:39:10;;;;;;;12.50;9.80;;;10.60;99.90;;;;;;4934043;28;21874;-84
2021/11/21 11:41:55;;;;;;;12.27;9.43;;;10.60;99.90;;;;;;4938455;28;20801;-85
2021/11/21 11:44:22;;;;;;;15.80;10.77;;;10.60;99.90;;;;;;4937818;28;20717;-83
2021/11/21 11:46:49;;;;;;;12.80;9.47;;;10.70;99.90;;;;;;4935096;28;20476;-87
2021/11/21 11:49:35;;;;;;;12.50;9.27;;;10.70;99.90;;;;;;4937011;28;20796;-84
2021/11/21 11:52:02;;;;;;;14.10;10.13;;;10.70;99.90;;;;;;4935251;28;20634;-84
2021/11/21 11:54:32;;;;;;;11.10;9.33;;;10.80;99.90;;;;;;4931656;28;22177;-85
2021/11/21 11:57:05;;;;;;;13.13;9.50;;;10.70;99.90;;;;;;4933501;28;20485;-83
2021/11/21 11:59:42;;;;;;;12.33;10.40;;;10.80;99.90;;;;;;4948380;28;20575;-83
2021/11/21 12:02:13;;;;;;;11.23;9.20;;;10.80;99.90;;;;;;4947795;28;20488;-83
2021/11/21 12:04:41;;;;;;;14.50;9.80;;;10.70;99.90;;;;;;4935003;28;20464;-83
2021/11/21 12:07:28;;;;;;;12.43;9.63;;;10.70;99.90;;;;;;4934451;28;21004;-84
2021/11/21 12:10:10;;;;;;;15.10;11.63;;;10.80;99.90;;;;;;4928173;28;20495;-85
2021/11/21 12:13:02;;;;;;;12.47;10.13;;;10.70;99.90;;;;;;4939443;28;20827;-83
2021/11/21 12:15:40;;;;;;;12.40;10.40;;;10.60;99.90;;;;;;4956336;28;20449;-86
2021/11/21 12:18:08;;;;;;;11.03;9.57;;;10.60;99.90;;;;;;4950508;28;20456;-83
2021/11/21 12:20:53;;;;;;;13.03;10.67;;;10.60;99.90;;;;;;4951915;28;20499;-84
2021/11/21 12:23:42;;;;;;;12.60;11.30;;;10.60;99.90;;;;;;4943778;28;20469;-81
2021/11/21 12:26:23;;;;;;;15.27;10.53;;;10.70;99.90;;;;;;4934842;28;20488;-82
2021/11/21 12:29:18;;;;;;;12.40;10.90;;;10.70;99.90;;;;;;4931388;28;20466;-84
2021/11/21 12:31:47;;;;;;;16.03;11.27;;;10.80;99.90;;;;;;4932456;28;20532;-83
2021/11/21 12:34:26;;;;;;;12.30;10.63;;;10.80;99.90;;;;;;4934377;28;20461;-83
2021/11/21 12:37:19;;;;;;;12.60;10.73;;;10.70;99.90;;;;;;4932146;28;20502;-84
2021/11/21 12:39:50;;;;;;;12.00;9.17;;;10.70;99.90;;;;;;4934374;28;20826;-84
2021/11/21 12:42:22;;;;;;;14.97;9.20;;;10.70;99.90;;;;;;4937030;28;20466;-84
2021/11/21 12:45:04;;;;;;;10.83;9.20;;;10.70;99.90;;;;;;4935326;28;20504;-81
2021/11/21 12:47:32;;;;;;;10.57;8.60;;;10.80;99.90;;;;;;4942264;28;20464;-83
2021/11/21 12:49:59;;;;;;;12.90;8.30;;;10.70;99.90;;;;;;4939652;28;20480;-83
2021/11/21 12:52:26;;;;;;;10.10;7.80;;;10.70;99.90;;;;;;4955385;28;20475;-82
2021/11/21 12:54:54;;;;;;;11.83;8.03;;;10.70;99.90;;;;;;4935686;28;20903;-83
2021/11/21 12:57:21;;;;;;;8.77;6.93;;;10.70;99.90;;;;;;4939650;28;20467;-82
2021/11/21 12:59:56;;;;;;;10.17;7.10;;;10.70;99.90;;;;;;4941474;28;20483;-82
2021/11/21 13:02:27;;;;;;;10.97;7.53;;;10.70;99.90;;;;;;4935731;28;20450;-81
2021/11/21 13:05:01;;;;;;;11.03;6.80;;;10.80;99.90;;;;;;4948025;28;20462;-82
2021/11/21 13:07:43;;;;;;;10.50;6.90;;;11.10;99.90;;;;;;4951946;28;20542;-86
2021/11/21 13:10:18;;;;;;;11.47;7.33;;;11.30;99.90;;;;;;4942743;28;20598;-84
2021/11/21 13:12:53;;;;;;;11.17;8.13;;;11.10;99.90;;;;;;4938232;28;20495;-84